sensor_id;sensor_type;location;lat;lon;timestamp;P1;durP1;ratioP1;P2;durP2;ratioP2
36449;SDS011;22475;51.390;7.180;2023-08-12T08:59:11;6.93;;;2.13;;
36449;SDS011;22475;51.390;7.180;2023-08-12T09:01:38;1.70;;;1.50;;
36449;SDS011;22475;51.390;7.180;2023-08-12T09:04:06;2.00;;;1.85;;
36449;SDS011;22475;51.390;7.180;2023-08-12T09:06:33;3.85;;;1.60;;
36449;SDS011;22475;51.390;7.180;2023-08-12T09:09:05;1.95;;;1.85;;
36449;SDS011;22475;51.390;7.180;2023-08-12T09:11:35;5.88;;;2.42;;
36449;SDS011;22475;51.390;7.180;2023-08-12T09:14:04;2.15;;;1.83;;
36449;SDS011;22475;51.390;7.180;2023-08-12T09:16:32;14.18;;;1.80;;
36449;SDS011;22475;51.390;7.180;2023-08-12T09:19:00;1.73;;;1.63;;
36449;SDS011;22475;51.390;7.180;2023-08-12T09:21:27;1.95;;;1.85;;
36449;SDS011;22475;51.390;7.180;2023-08-12T09:23:54;1.90;;;1.23;;
36449;SDS011;22475;51.390;7.180;2023-08-12T09:26:21;3.03;;;1.60;;
36449;SDS011;22475;51.390;7.180;2023-08-12T09:28:48;2.97;;;1.73;;
36449;SDS011;22475;51.390;7.180;2023-08-12T09:31:21;2.78;;;1.73;;
36449;SDS011;22475;51.390;7.180;2023-08-12T09:33:51;1.35;;;1.33;;
36449;SDS011;22475;51.390;7.180;2023-08-12T09:36:19;1.83;;;1.73;;
36449;SDS011;22475;51.390;7.180;2023-08-12T09:38:47;1.90;;;1.80;;
36449;SDS011;22475;51.390;7.180;2023-08-12T09:41:14;1.77;;;1.67;;
36449;SDS011;22475;51.390;7.180;2023-08-12T09:43:41;1.73;;;1.63;;
36449;SDS011;22475;51.390;7.180;2023-08-12T09:46:10;1.70;;;1.60;;
36449;SDS011;22475;51.390;7.180;2023-08-12T09:48:38;1.20;;;1.20;;
36449;SDS011;22475;51.390;7.180;2023-08-12T09:51:06;2.78;;;2.58;;
36449;SDS011;22475;51.390;7.180;2023-08-12T09:53:33;1.70;;;1.50;;
36449;SDS011;22475;51.390;7.180;2023-08-12T09:56:01;2.05;;;1.95;;
36449;SDS011;22475;51.390;7.180;2023-08-12T09:58:33;1.85;;;1.75;;
36449;SDS011;22475;51.390;7.180;2023-08-12T10:01:02;1.73;;;1.63;;
36449;SDS011;22475;51.390;7.180;2023-08-12T10:03:29;1.88;;;1.58;;
36449;SDS011;22475;51.390;7.180;2023-08-12T10:05:58;1.90;;;1.80;;
36449;SDS011;22475;51.390;7.180;2023-08-12T10:08:28;1.73;;;1.63;;
36449;SDS011;22475;51.390;7.180;2023-08-12T10:10:55;3.13;;;1.70;;
36449;SDS011;22475;51.390;7.180;2023-08-12T10:13:22;1.85;;;1.75;;
36449;SDS011;22475;51.390;7.180;2023-08-12T10:15:49;1.20;;;1.20;;
36449;SDS011;22475;51.390;7.180;2023-08-12T10:18:17;2.08;;;1.98;;
36449;SDS011;22475;51.390;7.180;2023-08-12T10:20:44;3.63;;;1.52;;
36449;SDS011;22475;51.390;7.180;2023-08-12T10:23:14;1.67;;;1.58;;
36449;SDS011;22475;51.390;7.180;2023-08-12T10:25:44;2.05;;;1.23;;
36449;SDS011;22475;51.390;7.180;2023-08-12T10:28:11;1.42;;;1.33;;
36449;SDS011;22475;51.390;7.180;2023-08-12T10:30:39;2.65;;;1.10;;
36449;SDS011;22475;51.390;7.180;2023-08-12T10:33:09;1.50;;;1.23;;
36449;SDS011;22475;51.390;7.180;2023-08-12T10:35:40;1.63;;;1.42;;
36449;SDS011;22475;51.390;7.180;2023-08-12T10:38:08;1.65;;;1.45;;
36449;SDS011;22475;51.390;7.180;2023-08-12T10:40:35;3.38;;;1.20;;
36449;SDS011;22475;51.390;7.180;2023-08-12T10:43:03;1.42;;;1.33;;
36449;SDS011;22475;51.390;7.180;2023-08-12T10:45:40;2.05;;;1.27;;
36449;SDS011;22475;51.390;7.180;2023-08-12T10:48:18;1.52;;;1.42;;
36449;SDS011;22475;51.390;7.180;2023-08-12T10:50:48;1.63;;;1.42;;
36449;SDS011;22475;51.390;7.180;2023-08-12T10:53:25;1.88;;;1.50;;
36449;SDS011;22475;51.390;7.180;2023-08-12T10:55:56;1.07;;;1.00;;
36449;SDS011;22475;51.390;7.180;2023-08-12T10:58:25;2.63;;;1.55;;
36449;SDS011;22475;51.390;7.180;2023-08-12T11:00:53;1.97;;;1.77;;
36449;SDS011;22475;51.390;7.180;2023-08-12T11:03:20;1.55;;;1.45;;
36449;SDS011;22475;51.390;7.180;2023-08-12T11:05:47;3.38;;;1.42;;
36449;SDS011;22475;51.390;7.180;2023-08-12T11:08:14;1.73;;;0.98;;
36449;SDS011;22475;51.390;7.180;2023-08-12T11:10:41;1.10;;;1.10;;
36449;SDS011;22475;51.390;7.180;2023-08-12T11:13:08;1.65;;;1.55;;
36449;SDS011;22475;51.390;7.180;2023-08-12T11:15:37;2.17;;;1.13;;
36449;SDS011;22475;51.390;7.180;2023-08-12T11:18:07;1.08;;;1.08;;
36449;SDS011;22475;51.390;7.180;2023-08-12T11:20:35;1.50;;;1.40;;
36449;SDS011;22475;51.390;7.180;2023-08-12T11:23:03;1.60;;;1.50;;
36449;SDS011;22475;51.390;7.180;2023-08-12T11:25:31;1.55;;;0.93;;
36449;SDS011;22475;51.390;7.180;2023-08-12T11:27:59;1.13;;;1.13;;
36449;SDS011;22475;51.390;7.180;2023-08-12T11:30:26;1.00;;;1.00;;
36449;SDS011;22475;51.390;7.180;2023-08-12T11:32:55;1.30;;;1.20;;
36449;SDS011;22475;51.390;7.180;2023-08-12T11:35:23;2.65;;;1.30;;
36449;SDS011;22475;51.390;7.180;2023-08-12T11:37:51;2.25;;;1.38;;
36449;SDS011;22475;51.390;7.180;2023-08-12T11:40:20;3.60;;;1.38;;
36449;SDS011;22475;51.390;7.180;2023-08-12T11:42:48;1.73;;;0.98;;
36449;SDS011;22475;51.390;7.180;2023-08-12T11:45:17;1.58;;;1.48;;
36449;SDS011;22475;51.390;7.180;2023-08-12T11:47:45;1.25;;;1.08;;
36449;SDS011;22475;51.390;7.180;2023-08-12T11:50:18;1.17;;;1.08;;
36449;SDS011;22475;51.390;7.180;2023-08-12T11:52:46;1.63;;;1.17;;
36449;SDS011;22475;51.390;7.180;2023-08-12T11:55:14;0.90;;;0.90;;
36449;SDS011;22475;51.390;7.180;2023-08-12T11:57:41;1.05;;;1.05;;
36449;SDS011;22475;51.390;7.180;2023-08-12T12:00:10;1.27;;;1.17;;
36449;SDS011;22475;51.390;7.180;2023-08-12T12:02:40;3.22;;;1.08;;
36449;SDS011;22475;51.390;7.180;2023-08-12T12:05:08;1.30;;;1.20;;
36449;SDS011;22475;51.390;7.180;2023-08-12T12:07:38;1.52;;;1.00;;
36449;SDS011;22475;51.390;7.180;2023-08-12T12:10:05;1.98;;;1.17;;
36449;SDS011;22475;51.390;7.180;2023-08-12T12:12:33;1.05;;;1.05;;
36449;SDS011;22475;51.390;7.180;2023-08-12T12:15:00;1.65;;;1.15;;
36449;SDS011;22475;51.390;7.180;2023-08-12T12:17:27;1.05;;;0.95;;
36449;SDS011;22475;51.390;7.180;2023-08-12T12:19:54;0.93;;;0.93;;
36449;SDS011;22475;51.390;7.180;2023-08-12T12:22:26;0.85;;;0.70;;
36449;SDS011;22475;51.390;7.180;2023-08-12T12:24:57;2.15;;;0.98;;
36449;SDS011;22475;51.390;7.180;2023-08-12T12:27:24;0.93;;;0.90;;
36449;SDS011;22475;51.390;7.180;2023-08-12T12:29:51;0.90;;;0.90;;
36449;SDS011;22475;51.390;7.180;2023-08-12T12:32:18;0.63;;;0.63;;
36449;SDS011;22475;51.390;7.180;2023-08-12T12:34:45;1.65;;;1.02;;
36449;SDS011;22475;51.390;7.180;2023-08-12T12:37:12;1.10;;;1.00;;
36449;SDS011;22475;51.390;7.180;2023-08-12T12:39:39;1.13;;;1.00;;
36449;SDS011;22475;51.390;7.180;2023-08-12T12:42:07;0.70;;;0.70;;
36449;SDS011;22475;51.390;7.180;2023-08-12T12:44:34;1.25;;;0.65;;
36449;SDS011;22475;51.390;7.180;2023-08-12T12:47:01;0.70;;;0.70;;
36449;SDS011;22475;51.390;7.180;2023-08-12T12:49:28;0.73;;;0.73;;
36449;SDS011;22475;51.390;7.180;2023-08-12T12:51:55;3.25;;;0.88;;
36449;SDS011;22475;51.390;7.180;2023-08-12T12:54:22;1.08;;;1.00;;
36449;SDS011;22475;51.390;7.180;2023-08-12T12:56:49;1.00;;;0.82;;
36449;SDS011;22475;51.390;7.180;2023-08-12T12:59:17;1.13;;;1.02;;
36449;SDS011;22475;51.390;7.180;2023-08-12T13:01:44;1.38;;;1.13;;
36449;SDS011;22475;51.390;7.180;2023-08-12T13:04:11;0.63;;;0.63;;
36449;SDS011;22475;51.390;7.180;2023-08-12T13:06:37;0.68;;;0.68;;
36449;SDS011;22475;51.390;7.180;2023-08-12T13:09:04;0.80;;;0.80;;
36449;SDS011;22475;51.390;7.180;2023-08-12T13:11:32;2.00;;;1.02;;
36449;SDS011;22475;51.390;7.180;2023-08-12T13:14:00;0.70;;;0.70;;
36449;SDS011;22475;51.390;7.180;2023-08-12T13:16:28;0.55;;;0.55;;
36449;SDS011;22475;51.390;7.180;2023-08-12T13:18:55;1.02;;;0.93;;
36449;SDS011;22475;51.390;7.180;2023-08-12T13:21:23;0.82;;;0.70;;
36449;SDS011;22475;51.390;7.180;2023-08-12T13:23:50;0.95;;;0.95;;
36449;SDS011;22475;51.390;7.180;2023-08-12T13:26:16;0.60;;;0.60;;
36449;SDS011;22475;51.390;7.180;2023-08-12T13:28:44;0.80;;;0.80;;
36449;SDS011;22475;51.390;7.180;2023-08-12T13:31:10;1.15;;;0.98;;
36449;SDS011;22475;51.390;7.180;2023-08-12T13:33:39;1.10;;;0.60;;
36449;SDS011;22475;51.390;7.180;2023-08-12T13:36:05;0.55;;;0.55;;
36449;SDS011;22475;51.390;7.180;2023-08-12T13:38:32;0.70;;;0.70;;
36449;SDS011;22475;51.390;7.180;2023-08-12T13:40:59;0.55;;;0.55;;
36449;SDS011;22475;51.390;7.180;2023-08-12T13:43:25;2.63;;;0.70;;
36449;SDS011;22475;51.390;7.180;2023-08-12T13:45:52;0.95;;;0.95;;
36449;SDS011;22475;51.390;7.180;2023-08-12T13:48:19;0.50;;;0.50;;
36449;SDS011;22475;51.390;7.180;2023-08-12T13:50:47;0.88;;;0.52;;
36449;SDS011;22475;51.390;7.180;2023-08-12T13:53:15;0.50;;;0.50;;
36449;SDS011;22475;51.390;7.180;2023-08-12T13:55:42;1.30;;;0.90;;
36449;SDS011;22475;51.390;7.180;2023-08-12T13:58:09;0.63;;;0.63;;
36449;SDS011;22475;51.390;7.180;2023-08-12T14:00:35;1.60;;;0.60;;
36449;SDS011;22475;51.390;7.180;2023-08-12T14:03:02;0.70;;;0.70;;
36449;SDS011;22475;51.390;7.180;2023-08-12T14:05:30;0.60;;;0.60;;
36449;SDS011;22475;51.390;7.180;2023-08-12T14:07:58;0.73;;;0.73;;
36449;SDS011;22475;51.390;7.180;2023-08-12T14:10:25;0.85;;;0.70;;
36449;SDS011;22475;51.390;7.180;2023-08-12T14:12:51;0.75;;;0.75;;
36449;SDS011;22475;51.390;7.180;2023-08-12T14:15:20;1.15;;;1.05;;
36449;SDS011;22475;51.390;7.180;2023-08-12T14:17:47;0.70;;;0.70;;
36449;SDS011;22475;51.390;7.180;2023-08-12T14:20:14;0.70;;;0.70;;
36449;SDS011;22475;51.390;7.180;2023-08-12T14:22:41;0.90;;;0.63;;
36449;SDS011;22475;51.390;7.180;2023-08-12T14:25:10;0.85;;;0.85;;
36449;SDS011;22475;51.390;7.180;2023-08-12T14:27:37;0.82;;;0.80;;
36449;SDS011;22475;51.390;7.180;2023-08-12T14:30:05;0.73;;;0.73;;
36449;SDS011;22475;51.390;7.180;2023-08-12T14:32:33;1.00;;;0.80;;
36449;SDS011;22475;51.390;7.180;2023-08-12T14:35:00;1.15;;;0.68;;
36449;SDS011;22475;51.390;7.180;2023-08-12T14:37:26;0.68;;;0.68;;
36449;SDS011;22475;51.390;7.180;2023-08-12T14:39:53;0.80;;;0.80;;
36449;SDS011;22475;51.390;7.180;2023-08-12T14:42:21;2.50;;;1.20;;
36449;SDS011;22475;51.390;7.180;2023-08-12T14:44:48;0.68;;;0.68;;
36449;SDS011;22475;51.390;7.180;2023-08-12T14:47:15;1.10;;;0.93;;
36449;SDS011;22475;51.390;7.180;2023-08-12T14:49:42;1.05;;;0.80;;
36449;SDS011;22475;51.390;7.180;2023-08-12T14:52:14;1.20;;;1.10;;
36449;SDS011;22475;51.390;7.180;2023-08-12T14:54:42;1.08;;;0.95;;
36449;SDS011;22475;51.390;7.180;2023-08-12T14:57:08;2.55;;;0.70;;
36449;SDS011;22475;51.390;7.180;2023-08-12T14:59:37;0.70;;;0.70;;
36449;SDS011;22475;51.390;7.180;2023-08-12T15:02:03;1.10;;;1.00;;
36449;SDS011;22475;51.390;7.180;2023-08-12T15:04:31;0.73;;;0.73;;
36449;SDS011;22475;51.390;7.180;2023-08-12T15:06:58;2.97;;;1.08;;
36449;SDS011;22475;51.390;7.180;2023-08-12T15:09:25;1.00;;;0.88;;
36449;SDS011;22475;51.390;7.180;2023-08-12T15:11:51;0.70;;;0.70;;
36449;SDS011;22475;51.390;7.180;2023-08-12T15:14:18;1.20;;;1.05;;
36449;SDS011;22475;51.390;7.180;2023-08-12T15:16:46;2.80;;;1.00;;
36449;SDS011;22475;51.390;7.180;2023-08-12T15:19:13;0.80;;;0.80;;
36449;SDS011;22475;51.390;7.180;2023-08-12T15:21:40;0.95;;;0.95;;
36449;SDS011;22475;51.390;7.180;2023-08-12T15:24:06;1.02;;;1.02;;
36449;SDS011;22475;51.390;7.180;2023-08-12T15:26:33;1.05;;;1.05;;
36449;SDS011;22475;51.390;7.180;2023-08-12T15:29:00;4.45;;;0.90;;
36449;SDS011;22475;51.390;7.180;2023-08-12T15:31:27;0.90;;;0.90;;
36449;SDS011;22475;51.390;7.180;2023-08-12T15:33:58;0.85;;;0.85;;
36449;SDS011;22475;51.390;7.180;2023-08-12T15:36:25;0.80;;;0.80;;
36449;SDS011;22475;51.390;7.180;2023-08-12T15:38:52;1.10;;;1.10;;
36449;SDS011;22475;51.390;7.180;2023-08-12T15:41:19;0.90;;;0.90;;
36449;SDS011;22475;51.390;7.180;2023-08-12T15:43:47;0.98;;;0.98;;
36449;SDS011;22475;51.390;7.180;2023-08-12T15:46:13;1.13;;;1.13;;
36449;SDS011;22475;51.390;7.180;2023-08-12T15:48:41;1.05;;;1.05;;
36449;SDS011;22475;51.390;7.180;2023-08-12T15:51:11;1.35;;;0.82;;
36449;SDS011;22475;51.390;7.180;2023-08-12T15:53:40;1.10;;;1.10;;
36449;SDS011;22475;51.390;7.180;2023-08-12T15:56:08;0.77;;;0.77;;
36449;SDS011;22475;51.390;7.180;2023-08-12T15:58:38;1.02;;;1.02;;
36449;SDS011;22475;51.390;7.180;2023-08-12T16:01:06;1.27;;;0.85;;
36449;SDS011;22475;51.390;7.180;2023-08-12T16:03:33;1.10;;;1.05;;
36449;SDS011;22475;51.390;7.180;2023-08-12T16:06:02;1.10;;;1.10;;
36449;SDS011;22475;51.390;7.180;2023-08-12T16:08:30;1.45;;;1.35;;
36449;SDS011;22475;51.390;7.180;2023-08-12T16:10:57;0.93;;;0.93;;
36449;SDS011;22475;51.390;7.180;2023-08-12T16:13:24;1.05;;;1.05;;
36449;SDS011;22475;51.390;7.180;2023-08-12T16:15:50;1.08;;;0.98;;
36449;SDS011;22475;51.390;7.180;2023-08-12T16:18:18;1.05;;;0.95;;
36449;SDS011;22475;51.390;7.180;2023-08-12T16:20:45;0.88;;;0.88;;
36449;SDS011;22475;51.390;7.180;2023-08-12T16:23:12;1.05;;;1.05;;
36449;SDS011;22475;51.390;7.180;2023-08-12T16:25:40;0.95;;;0.95;;
36449;SDS011;22475;51.390;7.180;2023-08-12T16:28:07;0.95;;;0.88;;
36449;SDS011;22475;51.390;7.180;2023-08-12T16:30:34;0.80;;;0.80;;
36449;SDS011;22475;51.390;7.180;2023-08-12T16:33:01;1.85;;;1.75;;
36449;SDS011;22475;51.390;7.180;2023-08-12T16:35:29;1.02;;;1.02;;
36449;SDS011;22475;51.390;7.180;2023-08-12T16:37:56;0.90;;;0.90;;
36449;SDS011;22475;51.390;7.180;2023-08-12T16:40:23;1.38;;;1.15;;
36449;SDS011;22475;51.390;7.180;2023-08-12T16:42:54;1.23;;;1.13;;
36449;SDS011;22475;51.390;7.180;2023-08-12T16:45:20;1.05;;;1.05;;
36449;SDS011;22475;51.390;7.180;2023-08-12T16:47:48;0.82;;;0.82;;
36449;SDS011;22475;51.390;7.180;2023-08-12T16:50:15;1.55;;;1.45;;
36449;SDS011;22475;51.390;7.180;2023-08-12T16:52:42;1.30;;;1.20;;
36449;SDS011;22475;51.390;7.180;2023-08-12T16:55:09;1.30;;;1.20;;
36449;SDS011;22475;51.390;7.180;2023-08-12T16:57:36;1.60;;;1.50;;
36449;SDS011;22475;51.390;7.180;2023-08-12T17:00:07;2.78;;;1.33;;
36449;SDS011;22475;51.390;7.180;2023-08-12T17:02:38;1.63;;;1.52;;
36449;SDS011;22475;51.390;7.180;2023-08-12T17:05:06;1.30;;;1.20;;
36449;SDS011;22475;51.390;7.180;2023-08-12T17:07:33;1.42;;;1.33;;
36449;SDS011;22475;51.390;7.180;2023-08-12T17:10:00;1.42;;;1.33;;
36449;SDS011;22475;51.390;7.180;2023-08-12T17:12:27;1.52;;;1.42;;
36449;SDS011;22475;51.390;7.180;2023-08-12T17:14:53;1.10;;;1.10;;
36449;SDS011;22475;51.390;7.180;2023-08-12T17:17:22;2.28;;;1.20;;
36449;SDS011;22475;51.390;7.180;2023-08-12T17:19:49;1.55;;;1.45;;
36449;SDS011;22475;51.390;7.180;2023-08-12T17:22:15;1.73;;;1.15;;
36449;SDS011;22475;51.390;7.180;2023-08-12T17:24:42;0.95;;;0.95;;
36449;SDS011;22475;51.390;7.180;2023-08-12T17:27:09;2.13;;;1.05;;
36449;SDS011;22475;51.390;7.180;2023-08-12T17:29:36;1.35;;;1.17;;
36449;SDS011;22475;51.390;7.180;2023-08-12T17:32:03;1.63;;;1.52;;
36449;SDS011;22475;51.390;7.180;2023-08-12T17:34:31;1.05;;;1.05;;
36449;SDS011;22475;51.390;7.180;2023-08-12T17:36:58;2.40;;;1.10;;
36449;SDS011;22475;51.390;7.180;2023-08-12T17:39:25;1.58;;;1.45;;
36449;SDS011;22475;51.390;7.180;2023-08-12T17:41:51;1.33;;;1.23;;
36449;SDS011;22475;51.390;7.180;2023-08-12T17:44:18;3.10;;;1.50;;
36449;SDS011;22475;51.390;7.180;2023-08-12T17:46:45;1.38;;;1.27;;
36449;SDS011;22475;51.390;7.180;2023-08-12T17:49:11;1.50;;;1.45;;
36449;SDS011;22475;51.390;7.180;2023-08-12T17:51:40;1.65;;;1.33;;
36449;SDS011;22475;51.390;7.180;2023-08-12T17:54:08;1.55;;;1.45;;
36449;SDS011;22475;51.390;7.180;2023-08-12T17:56:35;1.55;;;1.45;;
36449;SDS011;22475;51.390;7.180;2023-08-12T17:59:02;1.67;;;1.58;;
36449;SDS011;22475;51.390;7.180;2023-08-12T18:01:30;1.60;;;1.50;;
36449;SDS011;22475;51.390;7.180;2023-08-12T18:03:57;1.67;;;1.58;;
36449;SDS011;22475;51.390;7.180;2023-08-12T18:06:24;1.63;;;1.40;;
36449;SDS011;22475;51.390;7.180;2023-08-12T18:08:52;1.48;;;1.38;;
36449;SDS011;22475;51.390;7.180;2023-08-12T18:11:20;1.70;;;1.35;;
36449;SDS011;22475;51.390;7.180;2023-08-12T18:13:51;1.30;;;1.20;;
36449;SDS011;22475;51.390;7.180;2023-08-12T18:16:18;1.48;;;1.38;;
36449;SDS011;22475;51.390;7.180;2023-08-12T18:18:45;1.85;;;1.75;;
36449;SDS011;22475;51.390;7.180;2023-08-12T18:21:11;1.98;;;1.33;;
36449;SDS011;22475;51.390;7.180;2023-08-12T18:23:38;2.67;;;1.73;;
36449;SDS011;22475;51.390;7.180;2023-08-12T18:26:09;1.75;;;1.20;;
36449;SDS011;22475;51.390;7.180;2023-08-12T18:28:36;1.45;;;1.35;;
36449;SDS011;22475;51.390;7.180;2023-08-12T18:31:03;1.88;;;1.27;;
36449;SDS011;22475;51.390;7.180;2023-08-12T18:33:37;1.77;;;1.30;;
36449;SDS011;22475;51.390;7.180;2023-08-12T18:36:04;1.42;;;1.33;;
36449;SDS011;22475;51.390;7.180;2023-08-12T18:38:31;1.85;;;1.75;;
36449;SDS011;22475;51.390;7.180;2023-08-12T18:40:57;1.83;;;1.73;;
36449;SDS011;22475;51.390;7.180;2023-08-12T18:43:28;1.85;;;1.20;;
36449;SDS011;22475;51.390;7.180;2023-08-12T18:45:55;1.35;;;1.23;;
36449;SDS011;22475;51.390;7.180;2023-08-12T18:48:21;1.05;;;1.02;;
36449;SDS011;22475;51.390;7.180;2023-08-12T18:50:51;1.38;;;1.25;;
36449;SDS011;22475;51.390;7.180;2023-08-12T18:53:17;1.65;;;1.05;;
36449;SDS011;22475;51.390;7.180;2023-08-12T18:55:44;1.70;;;1.60;;
36449;SDS011;22475;51.390;7.180;2023-08-12T18:58:11;2.05;;;1.33;;
36449;SDS011;22475;51.390;7.180;2023-08-12T19:00:39;3.00;;;1.33;;
36449;SDS011;22475;51.390;7.180;2023-08-12T19:03:06;1.40;;;1.30;;
36449;SDS011;22475;51.390;7.180;2023-08-12T19:05:34;4.47;;;1.83;;
36449;SDS011;22475;51.390;7.180;2023-08-12T19:08:01;2.42;;;1.23;;
36449;SDS011;22475;51.390;7.180;2023-08-12T19:10:28;1.73;;;1.63;;
36449;SDS011;22475;51.390;7.180;2023-08-12T19:12:55;1.58;;;1.25;;
36449;SDS011;22475;51.390;7.180;2023-08-12T19:15:22;2.10;;;2.00;;
36449;SDS011;22475;51.390;7.180;2023-08-12T19:17:50;1.65;;;1.30;;
36449;SDS011;22475;51.390;7.180;2023-08-12T19:20:17;1.35;;;1.25;;
36449;SDS011;22475;51.390;7.180;2023-08-12T19:22:44;2.03;;;1.80;;
36449;SDS011;22475;51.390;7.180;2023-08-12T19:25:10;2.03;;;1.85;;
36449;SDS011;22475;51.390;7.180;2023-08-12T19:27:37;1.95;;;1.63;;
36449;SDS011;22475;51.390;7.180;2023-08-12T19:30:04;1.75;;;1.65;;
36449;SDS011;22475;51.390;7.180;2023-08-12T19:32:33;3.58;;;1.77;;
36449;SDS011;22475;51.390;7.180;2023-08-12T19:35:12;2.00;;;1.90;;
36449;SDS011;22475;51.390;7.180;2023-08-12T19:37:38;5.40;;;2.55;;
36449;SDS011;22475;51.390;7.180;2023-08-12T19:40:06;6.38;;;2.50;;
36449;SDS011;22475;51.390;7.180;2023-08-12T19:42:33;4.85;;;2.78;;
36449;SDS011;22475;51.390;7.180;2023-08-12T19:45:00;2.80;;;2.15;;
36449;SDS011;22475;51.390;7.180;2023-08-12T19:47:28;3.13;;;2.88;;
36449;SDS011;22475;51.390;7.180;2023-08-12T19:49:56;4.90;;;3.65;;
36449;SDS011;22475;51.390;7.180;2023-08-12T19:52:25;4.78;;;4.13;;
36449;SDS011;22475;51.390;7.180;2023-08-12T19:54:51;8.25;;;3.85;;
36449;SDS011;22475;51.390;7.180;2023-08-12T19:57:18;6.97;;;2.85;;
36449;SDS011;22475;51.390;7.180;2023-08-12T19:59:45;4.35;;;3.95;;
36449;SDS011;22475;51.390;7.180;2023-08-12T20:02:12;9.02;;;5.38;;
36449;SDS011;22475;51.390;7.180;2023-08-12T20:04:38;7.40;;;4.97;;
36449;SDS011;22475;51.390;7.180;2023-08-12T20:07:05;4.65;;;3.63;;
36449;SDS011;22475;51.390;7.180;2023-08-12T20:09:33;5.30;;;4.18;;
36449;SDS011;22475;51.390;7.180;2023-08-12T20:12:00;8.60;;;5.22;;
36449;SDS011;22475;51.390;7.180;2023-08-12T20:14:27;9.25;;;6.18;;
36449;SDS011;22475;51.390;7.180;2023-08-12T20:16:54;7.40;;;6.05;;
36449;SDS011;22475;51.390;7.180;2023-08-12T20:19:20;11.48;;;7.70;;
36449;SDS011;22475;51.390;7.180;2023-08-12T20:21:47;12.45;;;7.53;;
36449;SDS011;22475;51.390;7.180;2023-08-12T20:24:15;18.02;;;10.00;;
36449;SDS011;22475;51.390;7.180;2023-08-12T20:26:43;22.50;;;12.07;;
36449;SDS011;22475;51.390;7.180;2023-08-12T20:29:10;23.40;;;12.13;;
36449;SDS011;22475;51.390;7.180;2023-08-12T20:31:37;22.20;;;12.82;;
36449;SDS011;22475;51.390;7.180;2023-08-12T20:34:04;28.35;;;13.43;;
36449;SDS011;22475;51.390;7.180;2023-08-12T20:36:33;45.15;;;20.30;;
36449;SDS011;22475;51.390;7.180;2023-08-12T20:39:00;34.10;;;15.75;;
36449;SDS011;22475;51.390;7.180;2023-08-12T20:41:30;29.40;;;15.93;;
36449;SDS011;22475;51.390;7.180;2023-08-12T20:44:01;31.45;;;16.58;;
36449;SDS011;22475;51.390;7.180;2023-08-12T20:46:28;35.42;;;18.20;;
36449;SDS011;22475;51.390;7.180;2023-08-12T20:48:55;38.47;;;19.75;;
36449;SDS011;22475;51.390;7.180;2023-08-12T20:51:22;34.88;;;18.23;;
36449;SDS011;22475;51.390;7.180;2023-08-12T20:53:48;42.13;;;18.80;;
36449;SDS011;22475;51.390;7.180;2023-08-12T20:56:15;40.75;;;20.00;;
36449;SDS011;22475;51.390;7.180;2023-08-12T20:58:42;36.67;;;18.08;;
36449;SDS011;22475;51.390;7.180;2023-08-12T21:01:10;35.55;;;17.83;;
36449;SDS011;22475;51.390;7.180;2023-08-12T21:03:36;33.08;;;16.40;;
36449;SDS011;22475;51.390;7.180;2023-08-12T21:06:03;43.70;;;19.30;;
36449;SDS011;22475;51.390;7.180;2023-08-12T21:08:30;34.17;;;17.23;;
36449;SDS011;22475;51.390;7.180;2023-08-12T21:10:57;42.80;;;19.23;;
36449;SDS011;22475;51.390;7.180;2023-08-12T21:13:23;39.42;;;18.75;;
36449;SDS011;22475;51.390;7.180;2023-08-12T21:15:50;48.75;;;20.23;;
36449;SDS011;22475;51.390;7.180;2023-08-12T21:18:18;37.28;;;18.38;;
36449;SDS011;22475;51.390;7.180;2023-08-12T21:20:45;39.50;;;19.35;;
36449;SDS011;22475;51.390;7.180;2023-08-12T21:23:11;34.08;;;17.98;;
36449;SDS011;22475;51.390;7.180;2023-08-12T21:25:38;43.75;;;20.60;;
36449;SDS011;22475;51.390;7.180;2023-08-12T21:28:05;37.20;;;18.25;;
36449;SDS011;22475;51.390;7.180;2023-08-12T21:30:32;40.22;;;19.40;;
36449;SDS011;22475;51.390;7.180;2023-08-12T21:32:58;45.72;;;19.13;;
36449;SDS011;22475;51.390;7.180;2023-08-12T21:35:26;41.47;;;20.27;;
36449;SDS011;22475;51.390;7.180;2023-08-12T21:37:53;35.10;;;14.93;;
36449;SDS011;22475;51.390;7.180;2023-08-12T21:40:20;35.75;;;17.27;;
36449;SDS011;22475;51.390;7.180;2023-08-12T21:42:47;31.70;;;15.32;;
36449;SDS011;22475;51.390;7.180;2023-08-12T21:45:13;36.15;;;16.15;;
36449;SDS011;22475;51.390;7.180;2023-08-12T21:47:40;26.30;;;12.85;;
36449;SDS011;22475;51.390;7.180;2023-08-12T21:50:07;20.92;;;11.43;;
36449;SDS011;22475;51.390;7.180;2023-08-12T21:52:36;33.28;;;13.07;;
36449;SDS011;22475;51.390;7.180;2023-08-12T21:55:03;22.88;;;10.77;;
36449;SDS011;22475;51.390;7.180;2023-08-12T21:57:31;31.75;;;14.02;;
36449;SDS011;22475;51.390;7.180;2023-08-12T21:59:57;29.08;;;13.20;;
36449;SDS011;22475;51.390;7.180;2023-08-12T22:02:24;21.23;;;11.80;;
36449;SDS011;22475;51.390;7.180;2023-08-12T22:04:52;18.13;;;10.20;;
36449;SDS011;22475;51.390;7.180;2023-08-12T22:07:19;21.80;;;10.77;;
36449;SDS011;22475;51.390;7.180;2023-08-12T22:09:47;21.27;;;10.18;;
36449;SDS011;22475;51.390;7.180;2023-08-12T22:12:14;20.42;;;11.10;;
36449;SDS011;22475;51.390;7.180;2023-08-12T22:14:40;21.48;;;10.50;;
36449;SDS011;22475;51.390;7.180;2023-08-12T22:17:07;18.15;;;9.48;;
36449;SDS011;22475;51.390;7.180;2023-08-12T22:19:34;15.82;;;8.57;;
36449;SDS011;22475;51.390;7.180;2023-08-12T22:22:01;18.40;;;10.10;;
36449;SDS011;22475;51.390;7.180;2023-08-12T22:24:27;18.83;;;8.88;;
36449;SDS011;22475;51.390;7.180;2023-08-12T22:26:55;17.48;;;8.45;;
36449;SDS011;22475;51.390;7.180;2023-08-12T22:29:22;11.85;;;7.97;;
36449;SDS011;22475;51.390;7.180;2023-08-12T22:31:52;19.30;;;7.07;;
36449;SDS011;22475;51.390;7.180;2023-08-12T22:34:19;12.40;;;7.57;;
36449;SDS011;22475;51.390;7.180;2023-08-12T22:36:46;9.85;;;6.35;;
36449;SDS011;22475;51.390;7.180;2023-08-12T22:39:12;16.52;;;7.03;;
36449;SDS011;22475;51.390;7.180;2023-08-12T22:41:39;12.65;;;6.68;;
36449;SDS011;22475;51.390;7.180;2023-08-12T22:44:07;15.30;;;7.03;;
36449;SDS011;22475;51.390;7.180;2023-08-12T22:46:34;14.48;;;7.72;;
36449;SDS011;22475;51.390;7.180;2023-08-12T22:49:01;11.80;;;5.85;;
36449;SDS011;22475;51.390;7.180;2023-08-12T22:51:27;11.00;;;6.72;;
36449;SDS011;22475;51.390;7.180;2023-08-12T22:53:54;15.38;;;6.53;;
36449;SDS011;22475;51.390;7.180;2023-08-12T22:56:22;11.30;;;4.75;;
36449;SDS011;22475;51.390;7.180;2023-08-12T22:58:49;14.32;;;6.32;;
36449;SDS011;22475;51.390;7.180;2023-08-12T23:01:17;7.85;;;5.10;;
36449;SDS011;22475;51.390;7.180;2023-08-12T23:03:44;8.07;;;4.95;;
36449;SDS011;22475;51.390;7.180;2023-08-12T23:06:11;11.18;;;5.32;;
36449;SDS011;22475;51.390;7.180;2023-08-12T23:08:38;11.40;;;5.22;;
36449;SDS011;22475;51.390;7.180;2023-08-12T23:11:05;10.70;;;4.22;;
36449;SDS011;22475;51.390;7.180;2023-08-12T23:13:31;4.35;;;3.83;;
36449;SDS011;22475;51.390;7.180;2023-08-12T23:15:58;7.93;;;4.07;;
36449;SDS011;22475;51.390;7.180;2023-08-12T23:18:26;7.10;;;4.03;;
36449;SDS011;22475;51.390;7.180;2023-08-12T23:20:53;9.25;;;3.70;;
36449;SDS011;22475;51.390;7.180;2023-08-12T23:23:19;7.32;;;4.03;;
36449;SDS011;22475;51.390;7.180;2023-08-12T23:25:46;5.22;;;3.45;;
36449;SDS011;22475;51.390;7.180;2023-08-12T23:28:13;9.93;;;4.72;;
36449;SDS011;22475;51.390;7.180;2023-08-12T23:30:40;4.93;;;3.63;;
36449;SDS011;22475;51.390;7.180;2023-08-12T23:33:07;7.72;;;3.30;;
36449;SDS011;22475;51.390;7.180;2023-08-12T23:35:35;7.97;;;4.15;;
36449;SDS011;22475;51.390;7.180;2023-08-12T23:38:02;7.82;;;3.55;;
36449;SDS011;22475;51.390;7.180;2023-08-12T23:40:29;7.38;;;3.65;;
36449;SDS011;22475;51.390;7.180;2023-08-12T23:42:55;5.30;;;2.80;;